Fulton, Maryland
Current Conditions -  °F | °C
As of 1:54 PM on Thursday 23 Oct 2014 (Local Time) from KFME Reporting Station
Overcast Overcast  
Wind Chill: 63°   Ceiling: 4100
Heat Index: 63°   Visibility: 10mi
Dew Point: 45°   Wind: 16mph
Humidity: 52%   Direction: 320°NW
Pressure: 29.87"   Gusts: 26mph
Location:  39.15°N, 76.92°W
Report Text: KFME 231754Z AUTO 32014G23KT 280V340 10SM BKN041 OVC095 17/07 A2987 RMK AO1
Loading
Personal Weather Stations






























Interactive Weather Map New forecast layout! Learn more

10-Day Weather Forecast

Advertisements
Track Severe Weather on mobile